Date,TemperatureHighF,TemperatureAvgF,TemperatureLowF,DewpointHighF,DewpointAvgF,DewpointLowF,HumidityHigh,HumidityAvg,HumidityLow,PressureMaxIn,PressureMinIn,WindSpeedMaxMPH,WindSpeedAvgMPH,GustSpeedMaxMPH,PrecipitationSumIn
2013-1-1,36.5,31.7,19.2,24.2,15.6,3.6,64,52,39,29.97,29.75,13,6,24,0.02
2013-1-2,29.5,20.6,11.7,15.1,5.9,-2.6,64,53,45,30.14,29.93,14,5,23,0.00
2013-1-3,19.4,9.3,5.6,-2.2,-6.1,-7.9,58,49,32,30.18,30.13,8,3,15,0.00
2013-1-12,44.1,42.8,41.1,42.8,41.8,40.3,99,96,94,30.23,30.16,2,0,5,0.01
2013-1-13,53.1,47.2,42.2,49.9,45.9,41.9,99,96,86,30.19,30.02,7,2,14,0.02
2013-1-14,61.5,52.6,42.3,51.9,42.0,24.8,95,70,37,30.28,29.87,11,6,20,0.00
2013-1-15,42.2,38.7,34.9,25.3,23.5,21.3,62,54,48,30.35,30.25,5,2,13,0.00
2013-1-16,34.9,32.7,30.0,32.4,29.0,20.2,97,87,56,30.29,29.87,4,1,7,0.13
2013-1-17,41.8,35.2,29.5,32.5,26.3,11.2,96,72,47,30.13,29.87,9,4,18,0.20
2013-1-18,29.5,22.8,17.7,11.2,-2.5,-10.1,46,33,23,30.50,30.10,11,5,20,0.20
2013-1-19,49.1,38.1,22.7,30.7,20.1,2.5,67,49,32,30.43,29.93,13,6,27,0.00
2013-1-20,53.6,42.0,29.1,31.4,23.1,5.0,67,48,28,29.95,29.58,16,8,26,0.00
2013-1-21,28.8,24.9,21.9,20.3,8.2,0.8,87,51,31,30.14,29.84,11,3,21,0.00
2013-1-22,23.9,20.4,13.3,19.1,5.9,-5.8,89,56,30,30.12,29.80,11,5,21,0.00
2013-1-23,15.9,11.4,7.0,-2.1,-10.6,-15.6,55,37,24,30.19,30.10,12,6,19,0.00
2013-1-24,20.0,11.1,3.0,-9.3,-13.1,-17.4,50,33,19,30.26,30.10,15,7,29,0.00
2013-1-25,23.5,16.2,8.4,12.4,-9.5,-16.4,81,33,19,30.35,30.11,10,4,21,0.00
2013-1-26,24.8,17.6,11.7,12.4,0.3,-11.0,82,50,22,30.27,30.05,12,5,20,0.00
2013-1-27,31.2,21.1,12.8,1.2,-2.7,-9.2,59,37,21,30.51,30.27,13,5,20,0.00
2013-1-28,30.7,25.2,20.0,27.5,10.5,-2.2,94,58,27,30.50,30.06,6,1,12,0.00
2013-1-29,34.4,30.7,25.8,33.1,27.7,23.3,95,89,81,30.24,30.06,2,0,7,0.13
2013-1-30,62.4,50.2,34.3,57.5,47.9,33.0,99,92,79,30.19,29.50,13,5,24,0.05
2013-1-31,61.0,48.4,31.5,58.4,35.5,10.8,93,64,31,29.62,28.99,18,10,46,0.39